Liberal, KS

2:15 AM CDT on April 23, 2017 (GMT -0500)
Liberal Municipal

Weather History for KLBL - August, 2013

Change the Weather History Date:

Friday, August 23, 2013

  Actual Average Record
Temperature  
Mean Temperature 80 °F -  
Max Temperature 96 °F 93 °F 105 °F (1983)
Min Temperature 64 °F 64 °F 53 °F (1942)
Cooling Degree Days 15    
Growing Degree Days 30 (Base 50)    
Moisture  
Dew Point 55 °F    
Average Humidity 44    
Maximum Humidity 68    
Minimum Humidity 19    
Precipitation  
Precipitation 0.00 in - - ()
Sea Level Pressure  
Sea Level Pressure 30.05 in    
Wind  
Wind Speed 10 mph (South)    
Max Wind Speed 22 mph    
Max Gust Speed 28 mph    
Visibility 10 miles    
Events Thunderstorm    
Averages and records for this station are not official NWS values.
T = Trace of Precipitation, MM = Missing Value Source: NWS Daily Summary

Daily Weather History Graph

Daily Weather History Graph

Search for Another Location

Airport or City:

Trip Planner

Search our weather history database for the weather conditions in past years. The results will help you decide how hot, cold, wet, or windy it might be!

Date:

Astronomy

Aug. 23, 2013 Rise Set
Actual Time 7:07 AM CDT 8:24 PM CDT
Civil Twilight 6:40 AM CDT 8:51 PM CDT
Nautical Twilight 6:08 AM CDT 9:23 PM CDT
Astronomical Twilight 5:34 AM CDT 9:57 PM CDT
Moon 9:50 PM CDT 9:59 AM CDT
Length of Visible Light 14h 11m
Length of Day
13h 17m
Waning Gibbous, 91% of the Moon is Illuminated
Aug 23
Waning Gibbous
Aug 28
Last Quarter
Sep 5
New
Sep 12
First Quarter
Sep 19
Full

Hourly Weather History & Observations

Time (CDT) Temp. Heat Index Dew Point Humidity Pressure Visibility Wind Dir Wind Speed Gust Speed Precip Events Conditions
12:15 AM 73.4 °F - 53.6 °F 50% 30.09 in 10.0 mi SSE 6.9 mph - N/A   Scattered Clouds
12:35 AM 73.4 °F - 53.6 °F 50% 30.09 in 10.0 mi SSE 6.9 mph - N/A   Mostly Cloudy
12:55 AM 73.4 °F - 53.6 °F 50% 30.09 in 10.0 mi South 8.1 mph - N/A   Partly Cloudy
1:15 AM 71.6 °F - 53.6 °F 53% 30.09 in 10.0 mi SSE 6.9 mph - N/A   Clear
1:35 AM 71.6 °F - 53.6 °F 53% 30.09 in 10.0 mi SE 8.1 mph - N/A   Partly Cloudy
1:55 AM 73.4 °F - 53.6 °F 50% 30.09 in 10.0 mi SE 11.5 mph - N/A Thunderstorm Thunderstorm
2:15 AM 75.2 °F - 53.6 °F 47% 30.08 in 10.0 mi SSE 11.5 mph - N/A   Overcast
2:35 AM 71.6 °F - 53.6 °F 53% 30.08 in 10.0 mi SSE 13.8 mph - N/A   Mostly Cloudy
2:55 AM 69.8 °F - 55.4 °F 60% 30.08 in 10.0 mi SSE 12.7 mph - N/A   Partly Cloudy
3:15 AM 69.8 °F - 55.4 °F 60% 30.08 in 10.0 mi South 8.1 mph - N/A   Clear
3:35 AM 69.8 °F - 53.6 °F 56% 30.08 in 10.0 mi South 8.1 mph - N/A   Scattered Clouds
3:55 AM 69.8 °F - 53.6 °F 56% 30.08 in 10.0 mi SSW 6.9 mph - N/A   Partly Cloudy
4:15 AM 66.2 °F - 53.6 °F 64% 30.07 in 10.0 mi SSW 9.2 mph - N/A   Clear
4:35 AM 66.2 °F - 53.6 °F 64% 30.07 in 10.0 mi SSE 6.9 mph - N/A   Clear
4:55 AM 64.4 °F - 53.6 °F 68% 30.06 in 10.0 mi SSE 5.8 mph - N/A   Clear
5:15 AM 64.4 °F - 53.6 °F 68% 30.06 in 10.0 mi SSE 10.4 mph - N/A   Clear
5:35 AM 66.2 °F - 53.6 °F 64% 30.05 in 10.0 mi South 10.4 mph - N/A   Clear
5:55 AM 66.2 °F - 53.6 °F 64% 30.06 in 10.0 mi SW 8.1 mph - N/A   Clear
6:15 AM 64.4 °F - 53.6 °F 68% 30.07 in 10.0 mi SSW 6.9 mph - N/A   Clear
6:35 AM 64.4 °F - 53.6 °F 68% 30.06 in 10.0 mi SSW 8.1 mph - N/A   Clear
6:55 AM 64.4 °F - 53.6 °F 68% 30.06 in 10.0 mi SW 5.8 mph - N/A   Clear
7:15 AM 64.4 °F - 53.6 °F 68% 30.06 in 10.0 mi SSW 5.8 mph - N/A   Clear
7:35 AM 64.4 °F - 53.6 °F 68% 30.07 in 10.0 mi SW 3.5 mph - N/A   Clear
7:55 AM 64.4 °F - 53.6 °F 68% 30.07 in 10.0 mi SW 6.9 mph - N/A   Clear
8:15 AM 66.2 °F - 55.4 °F 68% 30.07 in 10.0 mi SW 6.9 mph - N/A   Clear
8:35 AM 71.6 °F - 55.4 °F 57% 30.07 in 10.0 mi SW 9.2 mph - N/A   Clear
8:55 AM 73.4 °F - 55.4 °F 53% 30.08 in 10.0 mi SSW 8.1 mph - N/A   Clear
9:15 AM 75.2 °F - 57.2 °F 53% 30.08 in 10.0 mi SSW 6.9 mph - N/A   Clear
9:35 AM 75.2 °F - 57.2 °F 53% 30.08 in 10.0 mi SSW 8.1 mph - N/A   Clear
9:55 AM 78.8 °F - 59.0 °F 51% 30.08 in 10.0 mi SSW 6.9 mph - N/A   Clear
10:15 AM 78.8 °F - 60.8 °F 54% 30.08 in 10.0 mi WSW 5.8 mph - N/A   Clear
10:35 AM 80.6 °F 81.5 °F 60.8 °F 51% 30.08 in 10.0 mi SW 8.1 mph - N/A   Clear
10:55 AM 82.4 °F 82.9 °F 60.8 °F 48% 30.08 in 10.0 mi SSW 8.1 mph - N/A   Clear
11:15 AM 84.2 °F 84.4 °F 60.8 °F 45% 30.08 in 10.0 mi SSW 8.1 mph - N/A   Clear
11:35 AM 86.0 °F 86.1 °F 60.8 °F 43% 30.08 in 10.0 mi SSW 6.9 mph - N/A   Clear
11:55 AM 87.8 °F 87.6 °F 60.8 °F 40% 30.08 in 10.0 mi South 12.7 mph 16.1 mph N/A   Clear
12:15 PM 87.8 °F 87.6 °F 60.8 °F 40% 30.08 in 10.0 mi SSW 11.5 mph 19.6 mph N/A   Clear
12:35 PM 89.6 °F 90.1 °F 62.6 °F 40% 30.08 in 10.0 mi SSW 15.0 mph 19.6 mph N/A   Clear
12:55 PM 91.4 °F 91.4 °F 60.8 °F 36% 30.07 in 10.0 mi SSW 13.8 mph - N/A   Clear
1:15 PM 93.2 °F 93.3 °F 60.8 °F 34% 30.07 in 10.0 mi South 15.0 mph - N/A   Clear
1:35 PM 93.2 °F 93.3 °F 60.8 °F 34% 30.06 in 10.0 mi SSW 17.3 mph 23.0 mph N/A   Clear
1:55 PM 96.8 °F 95.1 °F 55.4 °F 25% 30.05 in 10.0 mi South 15.0 mph 25.3 mph N/A   Clear
2:15 PM 96.8 °F 95.1 °F 55.4 °F 25% 30.05 in 10.0 mi SSW 19.6 mph 25.3 mph N/A   Clear
2:35 PM 96.8 °F 94.4 °F 53.6 °F 23% 30.04 in 10.0 mi SSW 18.4 mph 24.2 mph N/A   Clear
2:55 PM 96.8 °F 95.1 °F 55.4 °F 25% 30.04 in 10.0 mi SSW 13.8 mph 27.6 mph N/A   Clear
3:15 PM 96.8 °F 94.4 °F 53.6 °F 23% 30.03 in 10.0 mi SW 16.1 mph 20.7 mph N/A   Clear
3:35 PM 96.8 °F 94.4 °F 53.6 °F 23% 30.03 in 10.0 mi South 17.3 mph 26.5 mph N/A   Clear
3:55 PM 96.8 °F - 50.0 °F 20% 30.02 in 10.0 mi SSE 15.0 mph 23.0 mph N/A   Clear
4:15 PM 96.8 °F - 50.0 °F 20% 30.02 in 10.0 mi SSW 12.7 mph 23.0 mph N/A   Clear
4:35 PM 96.8 °F - 48.2 °F 19% 30.01 in 10.0 mi SW 11.5 mph 23.0 mph N/A   Clear
4:55 PM 96.8 °F - 50.0 °F 20% 30.01 in 10.0 mi South 15.0 mph 23.0 mph N/A   Clear
5:15 PM 96.8 °F - 51.8 °F 22% 30.00 in 10.0 mi SSW 12.7 mph 23.0 mph N/A   Clear
5:35 PM 96.8 °F - 51.8 °F 22% 30.00 in 10.0 mi SSW 13.8 mph 21.9 mph N/A   Clear
5:55 PM 95.0 °F 92.7 °F 53.6 °F 25% 30.00 in 10.0 mi SSW 16.1 mph 24.2 mph N/A   Clear
6:15 PM 95.0 °F 92.7 °F 53.6 °F 25% 29.99 in 10.0 mi South 21.9 mph - N/A   Clear
6:35 PM 95.0 °F - 50.0 °F 22% 29.99 in 10.0 mi South 13.8 mph - N/A   Clear
6:55 PM 93.2 °F - 50.0 °F 23% 29.99 in 10.0 mi SSW 16.1 mph - N/A   Clear
7:15 PM 93.2 °F - 48.2 °F 21% 29.99 in 10.0 mi South 13.8 mph - N/A   Clear
7:35 PM 91.4 °F - 50.0 °F 24% 29.99 in 10.0 mi South 9.2 mph - N/A   Clear
7:55 PM 89.6 °F - 51.8 °F 27% 29.99 in 10.0 mi South 10.4 mph - N/A   Clear
8:15 PM 86.0 °F - 51.8 °F 31% 29.99 in 10.0 mi South 9.2 mph - N/A   Clear
8:35 PM 84.2 °F 82.8 °F 53.6 °F 35% 29.99 in 10.0 mi South 9.2 mph - N/A   Clear
8:55 PM 82.4 °F 81.4 °F 53.6 °F 37% 30.00 in 10.0 mi SSE 9.2 mph - N/A   Clear
9:15 PM 82.4 °F 81.7 °F 55.4 °F 39% 30.01 in 10.0 mi SSE 10.4 mph - N/A   Clear
9:35 PM 80.6 °F 80.5 °F 55.4 °F 42% 30.02 in 10.0 mi SSE 10.4 mph - N/A   Clear
9:55 PM 80.6 °F 80.5 °F 55.4 °F 42% 30.03 in 10.0 mi SSE 10.4 mph - N/A   Clear
10:15 PM 78.8 °F - 55.4 °F 44% 30.04 in 10.0 mi SSE 10.4 mph - N/A   Clear
10:35 PM 77.0 °F - 55.4 °F 47% 30.04 in 10.0 mi SSE 10.4 mph - N/A   Clear
10:55 PM 77.0 °F - 55.4 °F 47% 30.04 in 10.0 mi SSE 10.4 mph - N/A   Clear
11:15 PM 75.2 °F - 53.6 °F 47% 30.04 in 10.0 mi South 10.4 mph - N/A   Clear
11:35 PM 77.0 °F - 53.6 °F 44% 30.04 in 10.0 mi South 10.4 mph - N/A   Clear
11:55 PM 77.0 °F - 53.6 °F 44% 30.05 in 10.0 mi South 10.4 mph - N/A   Clear